Řízení letového provozu České republiky  
Aktualizace dat:  31.01.2023 16:06:33 UTC English version
   METEO Zobrazení stránky:  31.01.2023 16:08:08 UTC  
vysvětlivky
METAR EDAC 311550Z 23016KT 9999 -RA OVC024 04/01 Q1016=
METAR EDDB 311550Z AUTO 25016KT 9999 BKN008 OVC011 04/04 Q1011 TEMPO 24015G25KT=
METAR EDDC 311550Z AUTO 25016G26KT 230V290 9999 -RA BKN016 BKN031 03/01 Q1014 TEMPO BKN014=
METAR EDDE 311550Z AUTO 23016KT 9999 BKN018 04/01 Q1016 TEMPO 25020G30KT BKN014=
METAR EDDF 311550Z AUTO 20013KT 9999 BKN011 OVC018 05/03 Q1022 TEMPO 4000 -DZ BKN008=
METAR EDDM 311550Z AUTO 25014KT 9999 FEW048 03/M02 Q1023 NOSIG=
METAR EDDN 311550Z AUTO 25014KT 9999 BKN021 04/M01 Q1022 NOSIG=
METAR EDDP 311550Z AUTO 24019KT 9999 BKN019 OVC038 04/01 Q1015 TEMPO 25020G35KT 4000 -DZ BKN014=
METAR EDQM 311550Z 23016KT 1800 -SN BR FEW007 BKN012 OVC016 00/M00 Q1017=
METAR EPBY 311600Z 24011KT 9999 -RA BKN008 OVC018 03/01 Q1008=
METAR EPGD 311600Z 23013KT 9999 -RA FEW014 SCT040 02/M01 Q1003=
METAR EPKK 311600Z 23008KT 8000 -SHSN SCT009 SCT020TCU BKN036 01/M00 Q1014 RESHSN=
METAR EPKT 311600Z 23011KT 9999 -SN FEW004 OVC006 01/00 Q1013=
METAR EPLB 311600Z 27014KT 9999 BKN042 02/M02 Q1010=
METAR EPLL 311600Z 23007KT 9999 FEW016 BKN019 02/M01 Q1010=
METAR EPMO 311600Z 23010KT 9999 FEW039 02/M03 Q1009=
METAR EPPO 311600Z 24011KT 9999 -RA BKN007 03/02 Q1009=
METAR EPRZ 311600Z 27012KT 9999 BKN042 01/M02 Q1013=
METAR EPWA 311600Z 25009KT 9999 FEW031 BKN040 02/M02 Q1009 NOSIG=
METAR EPWR 311600Z 27012KT 9999 -RA BKN020 04/01 Q1013=
METAR LHBP 311600Z 29012KT 9999 -SHRA SCT031 BKN076 04/M01 Q1018 NOSIG=
METAR LHSM 311545Z AUTO 36003KT CAVOK 05/M02 Q1020=
METAR LKBC NIL
METAR LKCS 311600Z AUTO 25016KT 9999 -RASN OVC030/// 02/M02 Q1019=
METAR LKCV 311600Z 24011KT 9999 -RA SCT019 OVC040 03/M00 Q1016 NOSIG RMK BLU BLU=
METAR LKKB 311600Z 24018KT 9999 -RA BKN022 OVC040 03/M01 Q1015 NOSIG RMK WHT WHT=
METAR LKKU NIL
METAR LKKV 311600Z 26012G24KT 2200 -SN BR BKN005 OVC013 M00/M01 Q1016=
METAR LKLN 311600Z AUTO 25010G20KT 220V300 9999 -RA OVC023 03/M02 Q1019=
METAR LKMT 311600Z 23014KT CAVOK 02/M01 Q1015 TEMPO 4500 -SN BKN020=
METAR LKNA 311600Z 26015KT 9999 OVC026 02/M03 Q1016 NOSIG RMK BLU BLU=
METAR LKPD 311600Z 26020KT 9999 -RA BKN017 OVC050 03/00 Q1016 NOSIG RMK WHT WHT=
METAR LKPJ 311600Z AUTO 26011KT 9999 FEW031/// OVC076/// 03/M02 Q1016=
METAR LKPR 311600Z 24021KT 9999 -RASN FEW012 SCT017 OVC044 02/M01 Q1016 NOSIG=
METAR LKTB 311600Z 26014KT CAVOK 04/M02 Q1017 NOSIG=
METAR LKVO NIL
METAR LOWG 311550Z VRB01KT CAVOK 04/M05 Q1019 NOSIG=
METAR LOWI 311550Z VRB02KT 9999 FEW080 BKN110 03/M03 Q1022 NOSIG=
METAR LOWK 311550Z AUTO VRB02KT CAVOK 02/M03 Q1019 NOSIG=
METAR LOWL 311550Z AUTO 26013KT CAVOK 04/M02 Q1022 NOSIG=
METAR LOWS 311550Z 22003KT 180V270 9999 FEW050 BKN090 04/M02 Q1023 NOSIG=
METAR LOWW 311550Z 29018KT 9999 FEW038 05/M03 Q1019 NOSIG=
METAR LOXZ 311550Z 09005KT 9999 FEW060 SCT110 03/M07 Q1019 NOSIG=
METAR LZIB 311600Z 26008KT 9999 SCT044 05/M02 Q1019 NOSIG=
METAR LZKZ 311600Z 35007KT CAVOK 02/M07 Q1015 NOSIG=
METAR LZPP 311600Z 28014KT 9999 SCT045 04/M02 Q1017=
METAR LZTT 311600Z VRB04KT 9999 FEW013 BKN023 M02/M05 Q1012 NOSIG=
METAR LZZI 311600Z 25008KT 9999 BKN030 02/M01 Q1016=